createdAt,value
2023-04-03T00:01:05.452Z,3.85
2023-04-03T00:03:33.062Z,3.81
2023-04-03T00:06:00.283Z,3.80
2023-04-03T00:08:27.580Z,3.82
2023-04-03T00:10:54.574Z,3.80
2023-04-03T00:13:21.492Z,3.79
2023-04-03T00:15:48.448Z,3.75
2023-04-03T00:18:15.549Z,3.74
2023-04-03T00:20:42.591Z,3.72
2023-04-03T00:23:09.619Z,3.67
2023-04-03T00:25:36.981Z,3.68
2023-04-03T00:28:05.450Z,3.66
2023-04-03T00:30:33.225Z,3.64
2023-04-03T00:33:00.648Z,3.63
2023-04-03T00:35:28.538Z,3.62
2023-04-03T00:37:56.674Z,3.61
2023-04-03T00:40:26.088Z,3.62
2023-04-03T00:42:57.806Z,3.60
2023-04-03T00:45:42.465Z,3.61
2023-04-03T00:48:13.866Z,3.59
2023-04-03T00:50:43.862Z,3.55
2023-04-03T00:53:16.299Z,3.55
2023-04-03T00:55:44.572Z,3.54
2023-04-03T00:58:13.228Z,3.54
2023-04-03T01:00:44.477Z,3.54
2023-04-03T01:03:11.370Z,3.52
2023-04-03T01:05:38.766Z,3.50
2023-04-03T01:08:06.453Z,3.51
2023-04-03T01:10:33.580Z,3.50
2023-04-03T01:13:01.240Z,3.48
2023-04-03T01:15:36.110Z,3.46
2023-04-03T01:18:03.995Z,3.45
2023-04-03T01:20:34.593Z,3.44
2023-04-03T01:23:10.780Z,3.44
2023-04-03T01:25:44.067Z,3.46
2023-04-03T01:28:18.269Z,3.45
2023-04-03T01:31:16.524Z,3.45
2023-04-03T01:33:44.617Z,3.44
2023-04-03T01:36:18.767Z,3.42
2023-04-03T01:38:45.962Z,3.46
2023-04-03T01:41:13.137Z,3.44
2023-04-03T01:43:40.117Z,3.48
2023-04-03T01:46:07.156Z,3.52
2023-04-03T01:48:34.216Z,3.55
2023-04-03T01:51:01.283Z,3.58
2023-04-03T01:53:28.360Z,3.55
2023-04-03T01:55:55.383Z,3.54
2023-04-03T01:58:22.459Z,3.68
2023-04-03T02:00:49.638Z,3.66
2023-04-03T02:03:16.677Z,3.68
2023-04-03T02:05:43.782Z,3.68
2023-04-03T02:08:11.256Z,3.67
2023-04-03T02:10:38.787Z,3.58
2023-04-03T02:13:06.134Z,3.63
2023-04-03T02:15:33.225Z,3.60
2023-04-03T02:18:00.256Z,3.48
2023-04-03T02:20:27.471Z,3.55
2023-04-03T02:22:54.490Z,3.49
2023-04-03T02:25:21.640Z,3.50
2023-04-03T02:27:48.775Z,3.48
2023-04-03T02:30:16.120Z,3.47
2023-04-03T02:32:44.479Z,3.45
2023-04-03T02:35:12.899Z,3.43
2023-04-03T02:37:40.244Z,3.44
2023-04-03T02:40:07.891Z,3.43
2023-04-03T02:42:34.874Z,3.41
2023-04-03T02:45:02.209Z,3.43
2023-04-03T02:47:30.624Z,3.43
2023-04-03T02:49:57.741Z,3.44
2023-04-03T02:52:24.779Z,3.44
2023-04-03T02:54:51.751Z,3.45
2023-04-03T02:57:18.721Z,3.47
2023-04-03T02:59:45.873Z,3.48
2023-04-03T03:02:12.859Z,3.50
2023-04-03T03:04:39.993Z,3.54
2023-04-03T03:07:07.131Z,3.57
2023-04-03T03:09:34.118Z,3.63
2023-04-03T03:12:01.241Z,3.69
2023-04-03T03:14:28.295Z,3.74
2023-04-03T03:16:55.551Z,3.82
2023-04-03T03:19:22.508Z,3.90
2023-04-03T03:21:49.486Z,3.95
2023-04-03T03:24:17.018Z,4.04
2023-04-03T03:26:44.484Z,4.13
2023-04-03T03:29:11.636Z,4.23
2023-04-03T03:31:38.739Z,4.32
2023-04-03T03:34:05.694Z,4.45
2023-04-03T03:36:33.005Z,4.59
2023-04-03T03:39:00.453Z,4.71
2023-04-03T03:41:27.874Z,4.87
2023-04-03T03:43:55.037Z,5.03
2023-04-03T03:46:22.167Z,5.23
2023-04-03T03:48:49.308Z,5.38
2023-04-03T03:51:16.885Z,5.54
2023-04-03T03:53:43.925Z,5.68
2023-04-03T03:56:11.761Z,5.91
2023-04-03T03:58:38.944Z,6.12
2023-04-03T04:01:07.355Z,6.33
2023-04-03T04:03:35.091Z,6.55
2023-04-03T04:06:02.920Z,6.79
2023-04-03T04:08:29.956Z,7.05
2023-04-03T04:10:56.975Z,7.33
2023-04-03T04:13:24.239Z,7.72
2023-04-03T04:15:51.424Z,8.26
2023-04-03T04:18:19.062Z,9.12
2023-04-03T04:20:47.364Z,10.92
2023-04-03T04:23:14.617Z,13.74
2023-04-03T04:25:41.742Z,15.85
2023-04-03T04:28:08.714Z,17.57
2023-04-03T04:30:36.152Z,19.24
2023-04-03T04:33:03.470Z,20.65
2023-04-03T04:35:30.497Z,22.38
2023-04-03T04:37:57.539Z,23.54
2023-04-03T04:40:24.564Z,24.24
2023-04-03T04:42:51.550Z,25.35
2023-04-03T04:45:18.902Z,26.28
2023-04-03T04:47:45.918Z,27.33
2023-04-03T04:50:13.996Z,28.42
2023-04-03T04:52:40.991Z,28.73
2023-04-03T04:55:08.337Z,29.28
2023-04-03T04:57:36.509Z,29.83
2023-04-03T05:00:04.262Z,30.19
2023-04-03T05:02:32.064Z,30.23
2023-04-03T05:04:59.121Z,30.04
2023-04-03T05:07:26.175Z,30.00
2023-04-03T05:09:53.102Z,29.95
2023-04-03T05:12:20.138Z,29.80
2023-04-03T05:14:47.087Z,29.78
2023-04-03T05:17:14.038Z,30.24
2023-04-03T05:19:41.088Z,30.56
2023-04-03T05:22:08.177Z,31.16
2023-04-03T05:24:35.120Z,31.77
2023-04-03T05:27:02.336Z,32.56
2023-04-03T05:29:29.328Z,33.17
2023-04-03T05:31:56.646Z,33.95
2023-04-03T05:34:23.702Z,34.88
2023-04-03T05:36:50.736Z,35.16
2023-04-03T05:39:17.982Z,34.89
2023-04-03T05:41:44.889Z,34.97
2023-04-03T05:44:11.872Z,35.33
2023-04-03T05:46:38.943Z,35.96
2023-04-03T05:49:05.847Z,36.65
2023-04-03T05:51:36.557Z,37.43
2023-04-03T05:54:14.293Z,38.12
2023-04-03T05:56:41.587Z,38.74
2023-04-03T05:59:08.683Z,39.09
2023-04-03T06:01:35.669Z,39.43
2023-04-03T06:04:03.041Z,39.44
2023-04-03T06:06:50.138Z,39.00
2023-04-03T06:09:18.031Z,38.31
2023-04-03T06:11:45.837Z,37.82
2023-04-03T06:14:13.272Z,37.52
2023-04-03T06:16:40.925Z,37.52
2023-04-03T06:19:09.603Z,37.73
2023-04-03T06:21:37.153Z,37.77
2023-04-03T06:24:05.241Z,37.99
2023-04-03T06:26:32.442Z,38.37
2023-04-03T06:28:59.447Z,38.60
2023-04-03T06:31:26.744Z,38.76
2023-04-03T06:33:53.761Z,38.90
2023-04-03T06:36:22.219Z,39.04
2023-04-03T06:38:49.939Z,39.28
2023-04-03T06:41:17.600Z,39.47
2023-04-03T06:43:45.864Z,39.54
2023-04-03T06:46:17.754Z,39.54
2023-04-03T06:48:45.766Z,39.71
2023-04-03T06:51:22.060Z,40.03
2023-04-03T06:53:49.702Z,40.38
2023-04-03T06:56:17.695Z,40.68
2023-04-03T06:58:46.161Z,40.94
2023-04-03T07:01:15.082Z,41.23
2023-04-03T07:03:42.443Z,41.63
2023-04-03T07:06:13.688Z,41.95
2023-04-03T07:08:40.964Z,42.36
2023-04-03T07:11:07.963Z,42.62
2023-04-03T07:13:35.809Z,42.90
2023-04-03T07:16:04.906Z,43.18
2023-04-03T07:18:35.753Z,43.38
2023-04-03T07:21:03.813Z,43.28
2023-04-03T07:23:31.013Z,42.68
2023-04-03T07:25:58.079Z,41.88
2023-04-03T07:28:27.019Z,40.84
2023-04-03T07:31:00.989Z,40.13
2023-04-03T07:33:28.116Z,40.13
2023-04-03T07:35:56.462Z,40.48
2023-04-03T07:38:23.629Z,40.93
2023-04-03T07:40:51.884Z,41.67
2023-04-03T07:43:20.199Z,42.27
2023-04-03T07:45:50.755Z,43.15
2023-04-03T07:48:25.978Z,44.12
2023-04-03T07:50:53.599Z,44.85
2023-04-03T07:53:21.010Z,45.63
2023-04-03T07:55:49.438Z,46.42
2023-04-03T07:58:18.693Z,47.03
2023-04-03T08:00:46.120Z,47.38
2023-04-03T08:03:14.392Z,47.26
2023-04-03T08:05:43.026Z,46.97
2023-04-03T08:08:13.195Z,46.70
2023-04-03T08:10:40.432Z,46.33
2023-04-03T08:13:08.120Z,45.93
2023-04-03T08:15:35.892Z,45.72
2023-04-03T08:18:03.680Z,45.54
2023-04-03T08:20:30.871Z,45.19
2023-04-03T08:22:57.975Z,45.13
2023-04-03T08:25:25.114Z,44.58
2023-04-03T08:27:52.426Z,43.91
2023-04-03T08:30:19.598Z,43.12
2023-04-03T08:32:47.047Z,42.27
2023-04-03T08:35:14.029Z,42.00
2023-04-03T08:37:41.395Z,42.14
2023-04-03T08:40:14.089Z,42.07
2023-04-03T08:43:04.460Z,42.04
2023-04-03T08:45:43.288Z,42.05
2023-04-03T08:48:13.302Z,41.91
2023-04-03T08:50:44.074Z,41.07
2023-04-03T08:53:17.812Z,40.01
2023-04-03T08:55:49.360Z,38.97
2023-04-03T08:58:21.699Z,38.03
2023-04-03T09:00:53.416Z,37.40
2023-04-03T09:03:22.806Z,37.38
2023-04-03T09:05:55.886Z,37.37
2023-04-03T09:08:38.729Z,37.47
2023-04-03T09:11:05.841Z,37.48
2023-04-03T09:13:55.969Z,37.32
2023-04-03T09:16:40.974Z,37.12
2023-04-03T09:19:23.040Z,36.71
2023-04-03T09:21:50.506Z,36.07
2023-04-03T09:24:19.171Z,35.36
2023-04-03T09:26:59.701Z,34.86
2023-04-03T09:29:27.881Z,34.59
2023-04-03T09:32:01.184Z,34.50
2023-04-03T09:34:39.426Z,34.39
2023-04-03T09:37:09.969Z,34.24
2023-04-03T09:39:57.499Z,33.85
2023-04-03T09:42:26.393Z,33.38
2023-04-03T09:44:59.262Z,32.71
2023-04-03T09:47:37.494Z,31.91
2023-04-03T09:50:14.235Z,31.07
2023-04-03T09:52:42.653Z,30.26
2023-04-03T09:55:32.953Z,29.49
2023-04-03T09:58:06.447Z,28.91
2023-04-03T10:00:41.630Z,28.35
2023-04-03T10:03:30.664Z,27.82
2023-04-03T10:05:59.984Z,27.49
2023-04-03T10:08:28.812Z,27.23
2023-04-03T10:11:18.256Z,27.03
2023-04-03T10:13:57.740Z,26.91
2023-04-03T10:16:40.546Z,26.89
2023-04-03T10:19:13.312Z,26.96
2023-04-03T10:21:57.099Z,27.11
2023-04-03T10:24:52.525Z,27.32
2023-04-03T10:27:38.420Z,27.71
2023-04-03T10:30:51.776Z,28.01
2023-04-03T10:33:18.729Z,28.34
2023-04-03T10:35:51.588Z,28.85
2023-04-03T10:38:46.631Z,30.05
2023-04-03T10:41:37.810Z,31.91
2023-04-03T10:44:28.961Z,33.70
2023-04-03T10:47:25.586Z,35.15
2023-04-03T10:50:06.824Z,36.19
2023-04-03T10:52:56.586Z,36.98
2023-04-03T10:55:43.248Z,37.57
2023-04-03T10:58:38.810Z,38.13
2023-04-03T11:01:14.675Z,38.26
2023-04-03T11:04:02.220Z,38.09
2023-04-03T11:06:58.336Z,37.78
2023-04-03T11:09:29.732Z,37.46
2023-04-03T11:12:05.472Z,37.14
2023-04-03T11:14:38.099Z,36.57
2023-04-03T11:17:27.969Z,35.63
2023-04-03T11:20:08.051Z,34.67
2023-04-03T11:22:40.000Z,33.86
2023-04-03T11:25:22.699Z,33.22
2023-04-03T11:28:00.851Z,33.27
2023-04-03T11:30:46.954Z,33.56
2023-04-03T11:33:28.940Z,34.19
2023-04-03T11:36:12.529Z,34.72
2023-04-03T11:38:48.878Z,35.02
2023-04-03T11:41:16.964Z,35.05
2023-04-03T11:43:58.705Z,34.86
2023-04-03T11:46:57.265Z,34.14
2023-04-03T11:49:53.488Z,33.07
2023-04-03T11:52:44.346Z,32.11
2023-04-03T11:55:23.528Z,31.66
2023-04-03T11:57:59.713Z,31.07
2023-04-03T12:00:45.335Z,30.51
2023-04-03T12:03:24.390Z,29.94
2023-04-03T12:06:11.661Z,29.22
2023-04-03T12:08:41.589Z,28.63
2023-04-03T12:11:14.674Z,28.13
2023-04-03T12:13:42.848Z,27.72
2023-04-03T12:16:33.822Z,27.28
2023-04-03T12:19:16.071Z,26.81
2023-04-03T12:21:49.676Z,26.42
2023-04-03T12:24:17.000Z,26.08
2023-04-03T12:26:59.528Z,25.74
2023-04-03T12:29:35.045Z,25.31
2023-04-03T12:32:05.262Z,25.04
2023-04-03T12:34:53.878Z,24.81
2023-04-03T12:37:20.801Z,24.48
2023-04-03T12:40:07.909Z,24.23
2023-04-03T12:42:40.755Z,24.02
2023-04-03T12:45:20.280Z,23.78
2023-04-03T12:47:51.176Z,23.54
2023-04-03T12:50:34.143Z,23.29
2023-04-03T12:53:06.498Z,23.07
2023-04-03T12:55:34.154Z,22.88
2023-04-03T12:58:23.805Z,22.70
2023-04-03T13:01:02.477Z,22.51
